Las Vegas, Nevada
Traffic Map
Current Weather Conditions
Las Vegas, Nevada
Scattered Clouds
Scattered Clouds
88°
Feels Like: 88°
Wind Chill: 88° Ceiling: Unl
Heat Index: 88° Visibility: 10mi
Dew Point: 59° Wind: 12mph
Humidity: 37% Direction: 10° (N)
Pressure: 29.85in Gusts: 0mph
Raw Report DataKLAS 310956Z 01010KT 10SM SCT120 31/15 A2985 RMK AO2 SLP075 T03110150
Traffic Incident Summary
Active as of:
Severity:
Category:
InformationThere was an issue retrieving the traffic information for this location. Please try a different location or try again shortly.
Advertisements
Track Severe Weather on mobile